Terminal Aerodrome Forecast
Issued by NWS

Home | Current Version | Previous Version | Text Only | Print | Product List | Glossary On
Versions: 1 2 3 4 5 6 7 8 9 10 11 12 13 14 15 16 17 18 19 20
371
FTUS41 KCAR 242320
TAFFVE
TAF
KFVE 242320Z 2500/2524 34010KT P6SM OVC020
     FM250200 36005KT 2SM -FZRASNPL OVC015
     FM250400 03004KT 1SM -FZRAPL OVC015
     FM251000 09005KT P6SM OVC015
     FM251500 12008KT P6SM OVC003
     FM251600 13008KT 1SM -DZ BR OVC008
     FM252200 15010G17KT 1SM -DZ BR OVC003 WS020/18040KT=

USA.gov is the U.S. government's official web portal to all federal, state and local government web resources and services.